sensor_id;sensor_type;location;lat;lon;timestamp;temperature;humidity
69359;HTU21D;56520;49.066;8.660;2022-12-08T00:01:12;-0.21;98.69
69359;HTU21D;56520;49.066;8.660;2022-12-08T00:03:38;-0.24;98.74
69359;HTU21D;56520;49.066;8.660;2022-12-08T00:06:05;-0.28;98.74
69359;HTU21D;56520;49.066;8.660;2022-12-08T00:08:49;-0.30;98.79
69359;HTU21D;56520;49.066;8.660;2022-12-08T00:11:34;-0.34;98.77
69359;HTU21D;56520;49.066;8.660;2022-12-08T00:13:59;-0.36;98.77
69359;HTU21D;56520;49.066;8.660;2022-12-08T00:16:25;-0.36;98.84
69359;HTU21D;56520;49.066;8.660;2022-12-08T00:18:51;-0.35;98.84
69359;HTU21D;56520;49.066;8.660;2022-12-08T00:21:16;-0.36;98.86
69359;HTU21D;56520;49.066;8.660;2022-12-08T00:23:42;-0.39;98.85
69359;HTU21D;56520;49.066;8.660;2022-12-08T00:26:07;-0.40;98.89
69359;HTU21D;56520;49.066;8.660;2022-12-08T00:28:33;-0.40;98.92
69359;HTU21D;56520;49.066;8.660;2022-12-08T00:30:58;-0.39;98.97
69359;HTU21D;56520;49.066;8.660;2022-12-08T00:33:24;-0.35;99.00
69359;HTU21D;56520;49.066;8.660;2022-12-08T00:35:51;-0.29;99.06
69359;HTU21D;56520;49.066;8.660;2022-12-08T00:38:17;-0.17;99.06
69359;HTU21D;56520;49.066;8.660;2022-12-08T00:40:43;-0.09;99.10
69359;HTU21D;56520;49.066;8.660;2022-12-08T00:43:08;-0.08;99.12
69359;HTU21D;56520;49.066;8.660;2022-12-08T00:45:33;-0.09;99.10
69359;HTU21D;56520;49.066;8.660;2022-12-08T00:47:59;-0.13;99.09
69359;HTU21D;56520;49.066;8.660;2022-12-08T00:50:24;-0.15;99.07
69359;HTU21D;56520;49.066;8.660;2022-12-08T00:52:50;-0.17;99.03
69359;HTU21D;56520;49.066;8.660;2022-12-08T00:55:15;-0.14;99.03
69359;HTU21D;56520;49.066;8.660;2022-12-08T00:57:40;-0.07;99.06
69359;HTU21D;56520;49.066;8.660;2022-12-08T01:00:06;-0.07;99.03
69359;HTU21D;56520;49.066;8.660;2022-12-08T01:02:34;-0.00;99.02
69359;HTU21D;56520;49.066;8.660;2022-12-08T01:04:59;0.09;99.03
69359;HTU21D;56520;49.066;8.660;2022-12-08T01:07:25;0.10;99.05
69359;HTU21D;56520;49.066;8.660;2022-12-08T01:09:50;0.10;99.06
69359;HTU21D;56520;49.066;8.660;2022-12-08T01:12:17;0.07;99.02
69359;HTU21D;56520;49.066;8.660;2022-12-08T01:14:42;0.01;99.04
69359;HTU21D;56520;49.066;8.660;2022-12-08T01:17:07;-0.06;99.02
69359;HTU21D;56520;49.066;8.660;2022-12-08T01:19:33;-0.12;99.03
69359;HTU21D;56520;49.066;8.660;2022-12-08T01:21:58;-0.22;98.97
69359;HTU21D;56520;49.066;8.660;2022-12-08T01:24:23;-0.30;98.92
69359;HTU21D;56520;49.066;8.660;2022-12-08T01:26:49;-0.37;98.93
69359;HTU21D;56520;49.066;8.660;2022-12-08T01:29:15;-0.45;98.92
69359;HTU21D;56520;49.066;8.660;2022-12-08T01:31:40;-0.55;98.88
69359;HTU21D;56520;49.066;8.660;2022-12-08T01:34:06;-0.61;98.90
69359;HTU21D;56520;49.066;8.660;2022-12-08T01:36:34;-0.65;98.92
69359;HTU21D;56520;49.066;8.660;2022-12-08T01:39:04;-0.71;98.93
69359;HTU21D;56520;49.066;8.660;2022-12-08T01:41:36;-0.76;98.97
69359;HTU21D;56520;49.066;8.660;2022-12-08T01:46:30;-0.80;99.10
69359;HTU21D;56520;49.066;8.660;2022-12-08T01:49:04;-0.84;99.03
69359;HTU21D;56520;49.066;8.660;2022-12-08T01:51:34;-0.89;99.07
69359;HTU21D;56520;49.066;8.660;2022-12-08T01:54:03;-0.94;99.09
69359;HTU21D;56520;49.066;8.660;2022-12-08T01:56:50;-0.97;99.08
69359;HTU21D;56520;49.066;8.660;2022-12-08T01:59:17;-1.02;99.06
69359;HTU21D;56520;49.066;8.660;2022-12-08T02:01:43;-1.05;99.07
69359;HTU21D;56520;49.066;8.660;2022-12-08T02:04:08;-1.10;99.06
69359;HTU21D;56520;49.066;8.660;2022-12-08T02:06:35;-1.14;99.07
69359;HTU21D;56520;49.066;8.660;2022-12-08T02:09:04;-1.16;99.05
69359;HTU21D;56520;49.066;8.660;2022-12-08T02:11:29;-1.20;99.06
69359;HTU21D;56520;49.066;8.660;2022-12-08T02:13:56;-1.17;99.09
69359;HTU21D;56520;49.066;8.660;2022-12-08T02:16:33;-1.18;99.09
69359;HTU21D;56520;49.066;8.660;2022-12-08T02:30:23;-1.31;99.13
69359;HTU21D;56520;49.066;8.660;2022-12-08T02:41:38;-1.34;99.22
69359;HTU21D;56520;49.066;8.660;2022-12-08T02:46:50;-1.32;99.24
69359;HTU21D;56520;49.066;8.660;2022-12-08T02:49:16;-1.35;99.21
69359;HTU21D;56520;49.066;8.660;2022-12-08T02:51:42;-1.42;99.18
69359;HTU21D;56520;49.066;8.660;2022-12-08T02:54:08;-1.45;99.16
69359;HTU21D;56520;49.066;8.660;2022-12-08T02:56:54;-1.49;99.13
69359;HTU21D;56520;49.066;8.660;2022-12-08T02:59:38;-1.52;99.10
69359;HTU21D;56520;49.066;8.660;2022-12-08T03:05:04;-1.58;99.07
69359;HTU21D;56520;49.066;8.660;2022-12-08T03:07:37;-1.60;99.06
69359;HTU21D;56520;49.066;8.660;2022-12-08T03:10:09;-1.59;99.09
69359;HTU21D;56520;49.066;8.660;2022-12-08T03:15:11;-1.53;99.22
69359;HTU21D;56520;49.066;8.660;2022-12-08T03:17:38;-1.45;99.26
69359;HTU21D;56520;49.066;8.660;2022-12-08T03:20:09;-1.38;99.36
69359;HTU21D;56520;49.066;8.660;2022-12-08T03:22:37;-1.31;99.42
69359;HTU21D;56520;49.066;8.660;2022-12-08T03:25:05;-1.24;99.45
69359;HTU21D;56520;49.066;8.660;2022-12-08T03:27:32;-1.16;99.50
69359;HTU21D;56520;49.066;8.660;2022-12-08T03:29:58;-1.06;99.55
69359;HTU21D;56520;49.066;8.660;2022-12-08T03:32:43;-0.99;99.61
69359;HTU21D;56520;49.066;8.660;2022-12-08T03:35:38;-0.94;99.63
69359;HTU21D;56520;49.066;8.660;2022-12-08T03:38:07;-0.87;99.67
69359;HTU21D;56520;49.066;8.660;2022-12-08T03:40:35;-0.82;99.71
69359;HTU21D;56520;49.066;8.660;2022-12-08T03:43:01;-0.77;99.68
69359;HTU21D;56520;49.066;8.660;2022-12-08T03:45:26;-0.73;99.67
69359;HTU21D;56520;49.066;8.660;2022-12-08T03:47:52;-0.68;99.66
69359;HTU21D;56520;49.066;8.660;2022-12-08T03:50:17;-0.62;99.61
69359;HTU21D;56520;49.066;8.660;2022-12-08T03:52:43;-0.62;99.54
69359;HTU21D;56520;49.066;8.660;2022-12-08T03:55:08;-0.61;99.49
69359;HTU21D;56520;49.066;8.660;2022-12-08T03:57:34;-0.59;99.44
69359;HTU21D;56520;49.066;8.660;2022-12-08T03:59:59;-0.57;99.39
69359;HTU21D;56520;49.066;8.660;2022-12-08T04:02:25;-0.55;99.35
69359;HTU21D;56520;49.066;8.660;2022-12-08T04:04:50;-0.54;99.32
69359;HTU21D;56520;49.066;8.660;2022-12-08T04:07:16;-0.51;99.28
69359;HTU21D;56520;49.066;8.660;2022-12-08T04:09:41;-0.49;99.23
69359;HTU21D;56520;49.066;8.660;2022-12-08T04:12:07;-0.46;99.20
69359;HTU21D;56520;49.066;8.660;2022-12-08T04:14:33;-0.43;99.17
69359;HTU21D;56520;49.066;8.660;2022-12-08T04:16:58;-0.39;99.13
69359;HTU21D;56520;49.066;8.660;2022-12-08T04:19:24;-0.38;99.06
69359;HTU21D;56520;49.066;8.660;2022-12-08T04:21:49;-0.40;99.02
69359;HTU21D;56520;49.066;8.660;2022-12-08T04:24:14;-0.41;98.97
69359;HTU21D;56520;49.066;8.660;2022-12-08T04:26:40;-0.44;98.93
69359;HTU21D;56520;49.066;8.660;2022-12-08T04:29:05;-0.46;98.90
69359;HTU21D;56520;49.066;8.660;2022-12-08T04:31:30;-0.47;98.87
69359;HTU21D;56520;49.066;8.660;2022-12-08T04:33:56;-0.49;98.86
69359;HTU21D;56520;49.066;8.660;2022-12-08T04:36:21;-0.47;98.85
69359;HTU21D;56520;49.066;8.660;2022-12-08T04:38:47;-0.46;98.84
69359;HTU21D;56520;49.066;8.660;2022-12-08T04:41:12;-0.44;98.85
69359;HTU21D;56520;49.066;8.660;2022-12-08T04:43:37;-0.38;98.89
69359;HTU21D;56520;49.066;8.660;2022-12-08T04:46:07;-0.34;98.89
69359;HTU21D;56520;49.066;8.660;2022-12-08T04:48:33;-0.30;98.87
69359;HTU21D;56520;49.066;8.660;2022-12-08T04:50:59;-0.27;98.86
69359;HTU21D;56520;49.066;8.660;2022-12-08T04:53:24;-0.25;98.84
69359;HTU21D;56520;49.066;8.660;2022-12-08T04:55:51;-0.22;98.81
69359;HTU21D;56520;49.066;8.660;2022-12-08T04:58:18;-0.15;98.82
69359;HTU21D;56520;49.066;8.660;2022-12-08T05:00:44;-0.08;98.80
69359;HTU21D;56520;49.066;8.660;2022-12-08T05:03:09;-0.05;98.80
69359;HTU21D;56520;49.066;8.660;2022-12-08T05:05:35;-0.00;98.79
69359;HTU21D;56520;49.066;8.660;2022-12-08T05:08:00;0.02;98.76
69359;HTU21D;56520;49.066;8.660;2022-12-08T05:10:26;0.03;98.70
69359;HTU21D;56520;49.066;8.660;2022-12-08T05:12:51;0.04;98.66
69359;HTU21D;56520;49.066;8.660;2022-12-08T05:15:16;0.06;98.62
69359;HTU21D;56520;49.066;8.660;2022-12-08T05:17:42;0.08;98.58
69359;HTU21D;56520;49.066;8.660;2022-12-08T05:20:08;0.12;98.55
69359;HTU21D;56520;49.066;8.660;2022-12-08T05:22:33;0.14;98.52
69359;HTU21D;56520;49.066;8.660;2022-12-08T05:24:59;0.17;98.49
69359;HTU21D;56520;49.066;8.660;2022-12-08T05:27:24;0.19;98.47
69359;HTU21D;56520;49.066;8.660;2022-12-08T05:29:49;0.21;98.44
69359;HTU21D;56520;49.066;8.660;2022-12-08T05:32:15;0.23;98.40
69359;HTU21D;56520;49.066;8.660;2022-12-08T05:34:41;0.23;98.36
69359;HTU21D;56520;49.066;8.660;2022-12-08T05:37:06;0.25;98.33
69359;HTU21D;56520;49.066;8.660;2022-12-08T05:39:31;0.29;98.31
69359;HTU21D;56520;49.066;8.660;2022-12-08T05:41:57;0.29;98.26
69359;HTU21D;56520;49.066;8.660;2022-12-08T05:44:23;0.31;98.23
69359;HTU21D;56520;49.066;8.660;2022-12-08T05:46:49;0.32;98.20
69359;HTU21D;56520;49.066;8.660;2022-12-08T05:49:14;0.35;98.14
69359;HTU21D;56520;49.066;8.660;2022-12-08T05:51:40;0.36;98.12
69359;HTU21D;56520;49.066;8.660;2022-12-08T05:54:05;0.38;98.08
69359;HTU21D;56520;49.066;8.660;2022-12-08T05:56:30;0.39;98.04
69359;HTU21D;56520;49.066;8.660;2022-12-08T05:58:56;0.43;98.01
69359;HTU21D;56520;49.066;8.660;2022-12-08T06:01:28;0.44;97.99
69359;HTU21D;56520;49.066;8.660;2022-12-08T06:03:55;0.45;97.95
69359;HTU21D;56520;49.066;8.660;2022-12-08T06:06:21;0.45;97.94
69359;HTU21D;56520;49.066;8.660;2022-12-08T06:08:47;0.47;97.92
69359;HTU21D;56520;49.066;8.660;2022-12-08T06:11:20;0.46;97.89
69359;HTU21D;56520;49.066;8.660;2022-12-08T06:13:46;0.48;97.88
69359;HTU21D;56520;49.066;8.660;2022-12-08T06:16:11;0.51;97.84
69359;HTU21D;56520;49.066;8.660;2022-12-08T06:18:36;0.53;97.82
69359;HTU21D;56520;49.066;8.660;2022-12-08T06:21:04;0.55;97.78
69359;HTU21D;56520;49.066;8.660;2022-12-08T06:23:30;0.59;97.74
69359;HTU21D;56520;49.066;8.660;2022-12-08T06:26:00;0.61;97.69
69359;HTU21D;56520;49.066;8.660;2022-12-08T06:28:26;0.61;97.66
69359;HTU21D;56520;49.066;8.660;2022-12-08T06:30:51;0.62;97.61
69359;HTU21D;56520;49.066;8.660;2022-12-08T06:33:16;0.64;97.58
69359;HTU21D;56520;49.066;8.660;2022-12-08T06:35:42;0.68;97.51
69359;HTU21D;56520;49.066;8.660;2022-12-08T06:38:07;0.72;97.47
69359;HTU21D;56520;49.066;8.660;2022-12-08T06:40:32;0.74;97.43
69359;HTU21D;56520;49.066;8.660;2022-12-08T06:42:58;0.76;97.39
69359;HTU21D;56520;49.066;8.660;2022-12-08T06:45:23;0.79;97.36
69359;HTU21D;56520;49.066;8.660;2022-12-08T06:47:49;0.82;97.29
69359;HTU21D;56520;49.066;8.660;2022-12-08T06:50:14;0.83;97.23
69359;HTU21D;56520;49.066;8.660;2022-12-08T06:52:39;0.86;97.19
69359;HTU21D;56520;49.066;8.660;2022-12-08T06:55:07;0.86;97.16
69359;HTU21D;56520;49.066;8.660;2022-12-08T06:57:33;0.86;97.11
69359;HTU21D;56520;49.066;8.660;2022-12-08T06:59:58;0.87;97.07
69359;HTU21D;56520;49.066;8.660;2022-12-08T07:02:23;0.91;97.06
69359;HTU21D;56520;49.066;8.660;2022-12-08T07:04:50;0.91;97.00
69359;HTU21D;56520;49.066;8.660;2022-12-08T07:07:15;0.93;96.91
69359;HTU21D;56520;49.066;8.660;2022-12-08T07:09:41;0.94;96.69
69359;HTU21D;56520;49.066;8.660;2022-12-08T07:12:06;0.95;96.51
69359;HTU21D;56520;49.066;8.660;2022-12-08T07:14:31;0.97;96.49
69359;HTU21D;56520;49.066;8.660;2022-12-08T07:16:57;1.01;96.46
69359;HTU21D;56520;49.066;8.660;2022-12-08T07:19:22;1.03;96.36
69359;HTU21D;56520;49.066;8.660;2022-12-08T07:21:48;1.05;96.37
69359;HTU21D;56520;49.066;8.660;2022-12-08T07:24:13;1.07;96.33
69359;HTU21D;56520;49.066;8.660;2022-12-08T07:26:39;1.07;96.29
69359;HTU21D;56520;49.066;8.660;2022-12-08T07:29:04;1.08;96.27
69359;HTU21D;56520;49.066;8.660;2022-12-08T07:31:30;1.07;96.26
69359;HTU21D;56520;49.066;8.660;2022-12-08T07:33:56;1.09;96.25
69359;HTU21D;56520;49.066;8.660;2022-12-08T07:36:22;1.10;96.23
69359;HTU21D;56520;49.066;8.660;2022-12-08T07:38:48;1.09;96.20
69359;HTU21D;56520;49.066;8.660;2022-12-08T07:41:20;1.10;96.20
69359;HTU21D;56520;49.066;8.660;2022-12-08T07:43:46;1.10;96.20
69359;HTU21D;56520;49.066;8.660;2022-12-08T07:46:14;1.11;96.18
69359;HTU21D;56520;49.066;8.660;2022-12-08T07:48:39;1.12;96.17
69359;HTU21D;56520;49.066;8.660;2022-12-08T07:51:05;1.13;96.16
69359;HTU21D;56520;49.066;8.660;2022-12-08T07:53:31;1.16;96.17
69359;HTU21D;56520;49.066;8.660;2022-12-08T07:55:56;1.19;96.10
69359;HTU21D;56520;49.066;8.660;2022-12-08T07:58:22;1.22;96.06
69359;HTU21D;56520;49.066;8.660;2022-12-08T08:00:48;1.23;95.97
69359;HTU21D;56520;49.066;8.660;2022-12-08T08:03:13;1.27;95.86
69359;HTU21D;56520;49.066;8.660;2022-12-08T08:05:38;1.29;95.74
69359;HTU21D;56520;49.066;8.660;2022-12-08T08:08:04;1.32;95.70
69359;HTU21D;56520;49.066;8.660;2022-12-08T08:10:29;1.36;95.57
69359;HTU21D;56520;49.066;8.660;2022-12-08T08:12:58;1.41;95.40
69359;HTU21D;56520;49.066;8.660;2022-12-08T08:15:24;1.43;95.33
69359;HTU21D;56520;49.066;8.660;2022-12-08T08:17:50;1.46;95.25
69359;HTU21D;56520;49.066;8.660;2022-12-08T08:20:15;1.52;95.02
69359;HTU21D;56520;49.066;8.660;2022-12-08T08:22:41;1.54;94.65
69359;HTU21D;56520;49.066;8.660;2022-12-08T08:25:06;1.53;94.60
69359;HTU21D;56520;49.066;8.660;2022-12-08T08:27:32;1.53;94.53
69359;HTU21D;56520;49.066;8.660;2022-12-08T08:29:57;1.54;94.52
69359;HTU21D;56520;49.066;8.660;2022-12-08T08:32:23;1.55;94.55
69359;HTU21D;56520;49.066;8.660;2022-12-08T08:34:49;1.55;94.57
69359;HTU21D;56520;49.066;8.660;2022-12-08T08:37:15;1.60;94.62
69359;HTU21D;56520;49.066;8.660;2022-12-08T08:39:40;1.63;94.60
69359;HTU21D;56520;49.066;8.660;2022-12-08T08:42:07;1.67;94.64
69359;HTU21D;56520;49.066;8.660;2022-12-08T08:44:32;1.75;94.66
69359;HTU21D;56520;49.066;8.660;2022-12-08T08:46:58;1.82;94.55
69359;HTU21D;56520;49.066;8.660;2022-12-08T08:49:23;1.86;94.30
69359;HTU21D;56520;49.066;8.660;2022-12-08T08:51:48;1.91;94.20
69359;HTU21D;56520;49.066;8.660;2022-12-08T08:54:14;1.94;94.20
69359;HTU21D;56520;49.066;8.660;2022-12-08T08:56:39;1.99;94.14
69359;HTU21D;56520;49.066;8.660;2022-12-08T08:59:05;2.06;94.04
69359;HTU21D;56520;49.066;8.660;2022-12-08T09:01:30;2.10;93.93
69359;HTU21D;56520;49.066;8.660;2022-12-08T09:03:56;2.15;93.61
69359;HTU21D;56520;49.066;8.660;2022-12-08T09:06:22;2.17;93.60
69359;HTU21D;56520;49.066;8.660;2022-12-08T09:08:48;2.26;93.51
69359;HTU21D;56520;49.066;8.660;2022-12-08T09:11:13;2.35;93.46
69359;HTU21D;56520;49.066;8.660;2022-12-08T09:13:39;2.45;93.40
69359;HTU21D;56520;49.066;8.660;2022-12-08T09:16:05;2.58;93.30
69359;HTU21D;56520;49.066;8.660;2022-12-08T09:18:32;2.66;93.15
69359;HTU21D;56520;49.066;8.660;2022-12-08T09:21:06;2.68;93.00
69359;HTU21D;56520;49.066;8.660;2022-12-08T09:23:33;2.73;92.97
69359;HTU21D;56520;49.066;8.660;2022-12-08T09:25:58;2.80;92.98
69359;HTU21D;56520;49.066;8.660;2022-12-08T09:28:24;2.88;92.67
69359;HTU21D;56520;49.066;8.660;2022-12-08T09:30:50;2.84;92.14
69359;HTU21D;56520;49.066;8.660;2022-12-08T09:33:15;2.75;91.37
69359;HTU21D;56520;49.066;8.660;2022-12-08T09:35:41;2.69;90.79
69359;HTU21D;56520;49.066;8.660;2022-12-08T09:38:06;2.64;90.25
69359;HTU21D;56520;49.066;8.660;2022-12-08T09:40:32;2.70;90.77
69359;HTU21D;56520;49.066;8.660;2022-12-08T09:43:55;2.82;91.02
69359;HTU21D;56520;49.066;8.660;2022-12-08T09:45:54;2.91;90.87
69359;HTU21D;56520;49.066;8.660;2022-12-08T09:48:24;2.97;90.83
69359;HTU21D;56520;49.066;8.660;2022-12-08T09:50:54;3.02;90.82
69359;HTU21D;56520;49.066;8.660;2022-12-08T09:53:25;3.04;90.62
69359;HTU21D;56520;49.066;8.660;2022-12-08T09:55:58;3.10;90.54
69359;HTU21D;56520;49.066;8.660;2022-12-08T10:00:56;3.16;90.01
69359;HTU21D;56520;49.066;8.660;2022-12-08T10:03:22;3.20;90.06
69359;HTU21D;56520;49.066;8.660;2022-12-08T10:06:02;3.31;89.10
69359;HTU21D;56520;49.066;8.660;2022-12-08T10:08:31;3.35;89.25
69359;HTU21D;56520;49.066;8.660;2022-12-08T10:11:06;3.45;88.54
69359;HTU21D;56520;49.066;8.660;2022-12-08T10:13:49;3.52;88.17
69359;HTU21D;56520;49.066;8.660;2022-12-08T10:16:27;3.55;88.07
69359;HTU21D;56520;49.066;8.660;2022-12-08T10:21:44;3.50;86.64
69359;HTU21D;56520;49.066;8.660;2022-12-08T10:24:25;3.47;87.18
69359;HTU21D;56520;49.066;8.660;2022-12-08T10:26:56;3.43;87.37
69359;HTU21D;56520;49.066;8.660;2022-12-08T10:29:22;3.44;87.05
69359;HTU21D;56520;49.066;8.660;2022-12-08T10:31:47;3.43;87.35
69359;HTU21D;56520;49.066;8.660;2022-12-08T10:34:20;3.48;87.13
69359;HTU21D;56520;49.066;8.660;2022-12-08T10:36:56;3.52;87.26
69359;HTU21D;56520;49.066;8.660;2022-12-08T10:39:40;3.54;87.46
69359;HTU21D;56520;49.066;8.660;2022-12-08T10:47:26;3.65;87.42
69359;HTU21D;56520;49.066;8.660;2022-12-08T10:50:07;3.72;87.41
69359;HTU21D;56520;49.066;8.660;2022-12-08T10:52:38;3.80;87.32
69359;HTU21D;56520;49.066;8.660;2022-12-08T10:55:13;3.85;86.96
69359;HTU21D;56520;49.066;8.660;2022-12-08T10:57:39;3.89;86.67
69359;HTU21D;56520;49.066;8.660;2022-12-08T11:00:04;3.95;86.50
69359;HTU21D;56520;49.066;8.660;2022-12-08T11:02:30;4.03;86.30
69359;HTU21D;56520;49.066;8.660;2022-12-08T11:04:56;4.08;86.46
69359;HTU21D;56520;49.066;8.660;2022-12-08T11:07:23;4.15;86.41
69359;HTU21D;56520;49.066;8.660;2022-12-08T11:09:51;4.19;86.01
69359;HTU21D;56520;49.066;8.660;2022-12-08T11:12:21;4.20;85.51
69359;HTU21D;56520;49.066;8.660;2022-12-08T11:14:49;4.22;85.48
69359;HTU21D;56520;49.066;8.660;2022-12-08T11:27:33;4.33;81.20
69359;HTU21D;56520;49.066;8.660;2022-12-08T11:30:02;4.31;81.72
69359;HTU21D;56520;49.066;8.660;2022-12-08T11:32:28;4.27;81.53
69359;HTU21D;56520;49.066;8.660;2022-12-08T11:34:59;4.22;81.65
69359;HTU21D;56520;49.066;8.660;2022-12-08T11:37:36;4.21;80.58
69359;HTU21D;56520;49.066;8.660;2022-12-08T11:40:19;4.19;80.36
69359;HTU21D;56520;49.066;8.660;2022-12-08T11:42:57;4.18;79.55
69359;HTU21D;56520;49.066;8.660;2022-12-08T11:45:28;4.14;81.04
69359;HTU21D;56520;49.066;8.660;2022-12-08T11:50:42;4.12;80.88
69359;HTU21D;56520;49.066;8.660;2022-12-08T11:53:16;4.09;80.38
69359;HTU21D;56520;49.066;8.660;2022-12-08T11:55:48;4.03;80.51
69359;HTU21D;56520;49.066;8.660;2022-12-08T11:58:21;4.00;81.32
69359;HTU21D;56520;49.066;8.660;2022-12-08T12:00:49;3.99;81.38
69359;HTU21D;56520;49.066;8.660;2022-12-08T12:03:26;4.00;81.87
69359;HTU21D;56520;49.066;8.660;2022-12-08T12:14:24;3.99;81.96
69359;HTU21D;56520;49.066;8.660;2022-12-08T12:17:05;3.95;82.36
69359;HTU21D;56520;49.066;8.660;2022-12-08T12:19:36;3.99;82.64
69359;HTU21D;56520;49.066;8.660;2022-12-08T12:22:34;4.05;82.07
69359;HTU21D;56520;49.066;8.660;2022-12-08T12:25:02;4.08;81.48
69359;HTU21D;56520;49.066;8.660;2022-12-08T12:27:38;4.10;81.41
69359;HTU21D;56520;49.066;8.660;2022-12-08T12:30:07;4.10;81.57
69359;HTU21D;56520;49.066;8.660;2022-12-08T12:32:42;4.09;81.51
69359;HTU21D;56520;49.066;8.660;2022-12-08T12:37:58;4.07;81.93
69359;HTU21D;56520;49.066;8.660;2022-12-08T12:40:27;4.07;82.32
69359;HTU21D;56520;49.066;8.660;2022-12-08T12:45:29;4.15;81.68
69359;HTU21D;56520;49.066;8.660;2022-12-08T12:56:09;4.24;82.38
69359;HTU21D;56520;49.066;8.660;2022-12-08T12:58:37;4.29;81.81
69359;HTU21D;56520;49.066;8.660;2022-12-08T13:03:35;4.31;81.20
69359;HTU21D;56520;49.066;8.660;2022-12-08T13:06:01;4.31;81.14
69359;HTU21D;56520;49.066;8.660;2022-12-08T13:08:27;4.33;81.10
69359;HTU21D;56520;49.066;8.660;2022-12-08T13:13:26;4.37;78.71
69359;HTU21D;56520;49.066;8.660;2022-12-08T13:15:54;4.35;79.57
69359;HTU21D;56520;49.066;8.660;2022-12-08T13:18:24;4.35;79.37
69359;HTU21D;56520;49.066;8.660;2022-12-08T13:21:02;4.36;79.75
69359;HTU21D;56520;49.066;8.660;2022-12-08T13:26:23;4.38;78.11
69359;HTU21D;56520;49.066;8.660;2022-12-08T13:31:41;4.30;78.35
69359;HTU21D;56520;49.066;8.660;2022-12-08T13:48:03;4.21;78.41
69359;HTU21D;56520;49.066;8.660;2022-12-08T13:50:35;4.21;78.80
69359;HTU21D;56520;49.066;8.660;2022-12-08T13:55:46;4.23;77.78
69359;HTU21D;56520;49.066;8.660;2022-12-08T13:58:24;4.19;77.78
69359;HTU21D;56520;49.066;8.660;2022-12-08T14:06:16;4.06;78.80
69359;HTU21D;56520;49.066;8.660;2022-12-08T14:08:42;4.02;78.81
69359;HTU21D;56520;49.066;8.660;2022-12-08T14:11:20;4.01;78.30
69359;HTU21D;56520;49.066;8.660;2022-12-08T14:14:10;3.91;79.11
69359;HTU21D;56520;49.066;8.660;2022-12-08T14:16:40;3.86;79.58
69359;HTU21D;56520;49.066;8.660;2022-12-08T14:21:40;3.76;79.97
69359;HTU21D;56520;49.066;8.660;2022-12-08T14:24:05;3.74;80.07
69359;HTU21D;56520;49.066;8.660;2022-12-08T14:26:32;3.73;79.86
69359;HTU21D;56520;49.066;8.660;2022-12-08T14:28:58;3.70;79.93
69359;HTU21D;56520;49.066;8.660;2022-12-08T14:31:24;3.69;79.85
69359;HTU21D;56520;49.066;8.660;2022-12-08T14:33:49;3.61;80.19
69359;HTU21D;56520;49.066;8.660;2022-12-08T14:36:15;3.57;80.46
69359;HTU21D;56520;49.066;8.660;2022-12-08T14:38:41;3.54;80.79
69359;HTU21D;56520;49.066;8.660;2022-12-08T14:41:07;3.50;81.04
69359;HTU21D;56520;49.066;8.660;2022-12-08T14:43:34;3.48;81.12
69359;HTU21D;56520;49.066;8.660;2022-12-08T14:46:02;3.45;81.36
69359;HTU21D;56520;49.066;8.660;2022-12-08T14:51:19;3.42;81.86
69359;HTU21D;56520;49.066;8.660;2022-12-08T14:59:04;3.34;82.27
69359;HTU21D;56520;49.066;8.660;2022-12-08T15:01:31;3.33;82.42
69359;HTU21D;56520;49.066;8.660;2022-12-08T15:04:26;3.31;82.65
69359;HTU21D;56520;49.066;8.660;2022-12-08T15:09:43;3.26;82.66
69359;HTU21D;56520;49.066;8.660;2022-12-08T15:15:01;3.25;82.52
69359;HTU21D;56520;49.066;8.660;2022-12-08T15:17:47;3.21;82.49
69359;HTU21D;56520;49.066;8.660;2022-12-08T15:20:45;3.18;82.48
69359;HTU21D;56520;49.066;8.660;2022-12-08T15:23:19;3.18;82.62
69359;HTU21D;56520;49.066;8.660;2022-12-08T15:25:45;3.14;82.78
69359;HTU21D;56520;49.066;8.660;2022-12-08T15:28:15;3.14;82.74
69359;HTU21D;56520;49.066;8.660;2022-12-08T15:30:41;3.12;82.64
69359;HTU21D;56520;49.066;8.660;2022-12-08T15:33:06;3.09;82.50
69359;HTU21D;56520;49.066;8.660;2022-12-08T15:35:32;3.03;82.68
69359;HTU21D;56520;49.066;8.660;2022-12-08T15:37:57;3.01;82.65
69359;HTU21D;56520;49.066;8.660;2022-12-08T15:40:22;3.00;82.63
69359;HTU21D;56520;49.066;8.660;2022-12-08T15:42:50;2.99;82.64
69359;HTU21D;56520;49.066;8.660;2022-12-08T15:45:15;2.97;82.71
69359;HTU21D;56520;49.066;8.660;2022-12-08T15:47:42;2.97;82.80
69359;HTU21D;56520;49.066;8.660;2022-12-08T15:50:20;2.95;82.91
69359;HTU21D;56520;49.066;8.660;2022-12-08T15:52:45;2.96;82.99
69359;HTU21D;56520;49.066;8.660;2022-12-08T15:55:11;2.96;83.01
69359;HTU21D;56520;49.066;8.660;2022-12-08T15:57:38;2.96;82.99
69359;HTU21D;56520;49.066;8.660;2022-12-08T16:00:03;2.97;82.93
69359;HTU21D;56520;49.066;8.660;2022-12-08T16:02:29;2.96;82.98
69359;HTU21D;56520;49.066;8.660;2022-12-08T16:04:54;2.96;83.07
69359;HTU21D;56520;49.066;8.660;2022-12-08T16:07:23;2.94;83.13
69359;HTU21D;56520;49.066;8.660;2022-12-08T16:09:49;2.93;83.16
69359;HTU21D;56520;49.066;8.660;2022-12-08T16:12:15;2.90;83.18
69359;HTU21D;56520;49.066;8.660;2022-12-08T16:15:00;2.88;83.29
69359;HTU21D;56520;49.066;8.660;2022-12-08T16:17:26;2.85;83.42
69359;HTU21D;56520;49.066;8.660;2022-12-08T16:19:51;2.83;83.55
69359;HTU21D;56520;49.066;8.660;2022-12-08T16:22:19;2.79;83.68
69359;HTU21D;56520;49.066;8.660;2022-12-08T16:24:45;2.78;83.75
69359;HTU21D;56520;49.066;8.660;2022-12-08T16:27:15;2.76;83.77
69359;HTU21D;56520;49.066;8.660;2022-12-08T16:29:43;2.73;83.82
69359;HTU21D;56520;49.066;8.660;2022-12-08T16:32:12;2.69;83.93
69359;HTU21D;56520;49.066;8.660;2022-12-08T16:34:38;2.65;84.05
69359;HTU21D;56520;49.066;8.660;2022-12-08T16:37:03;2.59;84.07
69359;HTU21D;56520;49.066;8.660;2022-12-08T16:39:29;2.56;84.23
69359;HTU21D;56520;49.066;8.660;2022-12-08T16:41:54;2.51;84.32
69359;HTU21D;56520;49.066;8.660;2022-12-08T16:44:39;2.45;84.52
69359;HTU21D;56520;49.066;8.660;2022-12-08T16:47:09;2.41;84.71
69359;HTU21D;56520;49.066;8.660;2022-12-08T16:49:38;2.36;84.84
69359;HTU21D;56520;49.066;8.660;2022-12-08T16:52:04;2.32;84.97
69359;HTU21D;56520;49.066;8.660;2022-12-08T16:54:30;2.28;85.13
69359;HTU21D;56520;49.066;8.660;2022-12-08T16:56:55;2.28;85.19
69359;HTU21D;56520;49.066;8.660;2022-12-08T16:59:20;2.28;85.31
69359;HTU21D;56520;49.066;8.660;2022-12-08T17:01:46;2.28;85.32
69359;HTU21D;56520;49.066;8.660;2022-12-08T17:04:11;2.25;85.39
69359;HTU21D;56520;49.066;8.660;2022-12-08T17:06:37;2.23;85.48
69359;HTU21D;56520;49.066;8.660;2022-12-08T17:09:02;2.23;85.54
69359;HTU21D;56520;49.066;8.660;2022-12-08T17:11:27;2.21;85.74
69359;HTU21D;56520;49.066;8.660;2022-12-08T17:13:56;2.20;85.79
69359;HTU21D;56520;49.066;8.660;2022-12-08T17:16:22;2.20;85.96
69359;HTU21D;56520;49.066;8.660;2022-12-08T17:18:47;2.17;85.96
69359;HTU21D;56520;49.066;8.660;2022-12-08T17:21:14;2.16;86.07
69359;HTU21D;56520;49.066;8.660;2022-12-08T17:23:41;2.14;86.13
69359;HTU21D;56520;49.066;8.660;2022-12-08T17:26:10;2.15;86.27
69359;HTU21D;56520;49.066;8.660;2022-12-08T17:28:36;2.17;86.23
69359;HTU21D;56520;49.066;8.660;2022-12-08T17:31:06;2.15;86.22
69359;HTU21D;56520;49.066;8.660;2022-12-08T17:33:32;2.16;86.24
69359;HTU21D;56520;49.066;8.660;2022-12-08T17:35:57;2.14;86.23
69359;HTU21D;56520;49.066;8.660;2022-12-08T17:38:23;2.15;86.24